createdAt,value
2019-04-01T00:00:47.032Z,64.00
2019-04-01T00:03:15.698Z,69.33
2019-04-01T00:05:45.802Z,69.70
2019-04-01T00:08:14.375Z,60.77
2019-04-01T00:10:42.982Z,62.27
2019-04-01T00:13:11.542Z,61.37
2019-04-01T00:15:40.227Z,67.90
2019-04-01T00:18:08.856Z,64.27
2019-04-01T00:20:37.745Z,49.57
2019-04-01T00:23:06.645Z,58.37
2019-04-01T00:25:38.636Z,53.63
2019-04-01T00:28:07.201Z,55.10
2019-04-01T00:30:35.874Z,50.80
2019-04-01T00:33:05.876Z,44.10
2019-04-01T00:35:34.504Z,44.37
2019-04-01T00:38:03.184Z,48.73
2019-04-01T00:40:31.754Z,44.43
2019-04-01T00:43:05.458Z,53.20
2019-04-01T00:45:35.682Z,53.33
2019-04-01T00:48:04.326Z,45.60
2019-04-01T00:50:32.877Z,53.13
2019-04-01T00:53:02.459Z,53.47
2019-04-01T00:55:30.993Z,52.13
2019-04-01T00:57:59.562Z,52.43
2019-04-01T01:00:28.240Z,44.07
2019-04-01T01:02:56.736Z,48.63
2019-04-01T01:05:25.406Z,58.40
2019-04-01T01:07:53.971Z,56.47
2019-04-01T01:10:22.602Z,61.27
2019-04-01T01:12:51.250Z,70.20
2019-04-01T01:15:19.929Z,68.20
2019-04-01T01:17:48.566Z,61.63
2019-04-01T01:20:17.747Z,50.33
2019-04-01T01:22:46.286Z,52.17
2019-04-01T01:25:14.913Z,49.03
2019-04-01T01:27:46.487Z,55.83
2019-04-01T01:30:15.228Z,51.30
2019-04-01T01:32:43.863Z,48.83
2019-04-01T01:35:12.526Z,45.33
2019-04-01T01:37:41.156Z,43.50
2019-04-01T01:40:09.828Z,41.27
2019-04-01T01:42:38.384Z,36.97
2019-04-01T01:45:07.940Z,47.17
2019-04-01T01:47:37.354Z,38.73
2019-04-01T01:50:07.491Z,42.27
2019-04-01T01:52:36.047Z,39.60
2019-04-01T01:55:04.924Z,40.43
2019-04-01T01:57:33.563Z,41.30
2019-04-01T02:00:02.169Z,46.07
2019-04-01T02:02:30.727Z,45.73
2019-04-01T02:04:59.284Z,45.43
2019-04-01T02:07:27.848Z,43.27
2019-04-01T02:09:56.521Z,44.17
2019-04-01T02:12:25.120Z,42.17
2019-04-01T02:14:53.791Z,47.83
2019-04-01T02:17:26.651Z,50.47
2019-04-01T02:19:55.179Z,46.63
2019-04-01T02:22:23.678Z,47.23
2019-04-01T02:24:52.245Z,45.10
2019-04-01T02:27:23.546Z,46.87
2019-04-01T02:29:52.197Z,48.53
2019-04-01T02:32:20.873Z,48.40
2019-04-01T02:34:49.490Z,48.50
2019-04-01T02:37:18.357Z,53.70
2019-04-01T02:39:46.908Z,52.30
2019-04-01T02:42:15.544Z,47.07
2019-04-01T02:44:44.082Z,51.43
2019-04-01T02:47:13.826Z,49.60
2019-04-01T02:49:42.511Z,56.80
2019-04-01T02:52:11.173Z,55.30
2019-04-01T02:54:39.739Z,51.23
2019-04-01T02:57:08.369Z,44.57
2019-04-01T02:59:36.861Z,52.60
2019-04-01T03:02:06.779Z,49.73
2019-04-01T03:04:35.420Z,49.50
2019-04-01T03:07:03.994Z,48.67
2019-04-01T03:09:32.597Z,51.17
2019-04-01T03:12:01.233Z,50.93
2019-04-01T03:14:29.967Z,45.77
2019-04-01T03:16:58.602Z,45.87
2019-04-01T03:19:27.283Z,40.83
2019-04-01T03:21:58.896Z,40.63
2019-04-01T03:24:27.541Z,48.47
2019-04-01T03:26:56.188Z,38.60
2019-04-01T03:29:24.871Z,46.40
2019-04-01T03:31:53.422Z,44.73
2019-04-01T03:34:22.095Z,46.23
2019-04-01T03:36:53.435Z,40.67
2019-04-01T03:39:22.382Z,44.40
2019-04-01T03:41:51.022Z,42.83
2019-04-01T03:44:19.806Z,43.43
2019-04-01T03:46:48.394Z,39.57
2019-04-01T03:49:17.073Z,37.03
2019-04-01T03:51:46.647Z,42.47
2019-04-01T03:54:15.281Z,41.03
2019-04-01T03:56:43.965Z,42.77
2019-04-01T03:59:12.590Z,43.40
2019-04-01T04:01:41.222Z,37.43
2019-04-01T04:04:09.867Z,38.83
2019-04-01T04:06:38.498Z,42.77
2019-04-01T04:09:08.186Z,41.20
2019-04-01T04:11:36.815Z,38.73
2019-04-01T04:14:05.449Z,38.30
2019-04-01T04:16:34.156Z,40.47
2019-04-01T04:19:02.799Z,45.90
2019-04-01T04:21:32.745Z,40.40
2019-04-01T04:24:01.314Z,43.30
2019-04-01T04:26:29.992Z,36.93
2019-04-01T04:29:01.271Z,45.70
2019-04-01T04:31:29.923Z,39.20
2019-04-01T04:33:58.684Z,37.60
2019-04-01T04:36:27.403Z,39.70
2019-04-01T04:38:56.091Z,38.77
2019-04-01T04:41:24.706Z,42.00
2019-04-01T04:43:53.349Z,39.47
2019-04-01T04:46:21.921Z,40.30
2019-04-01T04:48:50.564Z,35.90
2019-04-01T04:51:19.196Z,41.87
2019-04-01T04:53:47.964Z,35.63
2019-04-01T04:56:21.771Z,32.37
2019-04-01T04:58:50.930Z,35.07
2019-04-01T05:01:19.814Z,36.80
2019-04-01T05:03:48.974Z,32.37
2019-04-01T05:06:17.769Z,35.30
2019-04-01T05:08:46.642Z,38.83
2019-04-01T05:11:15.490Z,38.23
2019-04-01T05:13:44.397Z,37.80
2019-04-01T05:16:16.787Z,36.53
2019-04-01T05:18:48.546Z,38.00
2019-04-01T05:21:19.129Z,33.70
2019-04-01T05:23:51.647Z,38.53
2019-04-01T05:26:25.363Z,30.10
2019-04-01T05:28:57.806Z,29.17
2019-04-01T05:31:31.819Z,30.63
2019-04-01T05:34:02.248Z,33.33
2019-04-01T05:36:32.406Z,33.47
2019-04-01T05:39:01.478Z,43.23
2019-04-01T05:41:31.357Z,44.07
2019-04-01T05:44:02.283Z,36.03
2019-04-01T05:46:31.184Z,31.07
2019-04-01T05:49:00.205Z,37.20
2019-04-01T05:51:29.802Z,26.70
2019-04-01T05:53:58.775Z,33.93
2019-04-01T05:56:27.640Z,27.90
2019-04-01T05:58:56.273Z,34.93
2019-04-01T06:01:26.599Z,32.97
2019-04-01T06:03:55.407Z,35.27
2019-04-01T06:06:24.719Z,29.93
2019-04-01T06:08:56.898Z,35.80
2019-04-01T06:11:28.457Z,32.43
2019-04-01T06:14:01.481Z,38.53
2019-04-01T06:16:32.853Z,30.97
2019-04-01T06:19:08.002Z,38.33
2019-04-01T06:21:36.886Z,30.67
2019-04-01T06:24:05.669Z,31.63
2019-04-01T06:26:34.493Z,33.07
2019-04-01T06:29:03.484Z,38.77
2019-04-01T06:31:41.203Z,32.03
2019-04-01T06:34:16.021Z,27.53
2019-04-01T06:36:51.136Z,31.93
2019-04-01T06:39:20.327Z,33.60
2019-04-01T06:41:49.410Z,32.53
2019-04-01T06:44:20.144Z,35.77
2019-04-01T06:46:49.128Z,25.53
2019-04-01T06:49:20.300Z,29.53
2019-04-01T06:51:48.324Z,35.50
2019-04-01T06:54:17.149Z,34.87
2019-04-01T06:56:47.239Z,27.13
2019-04-01T06:59:15.926Z,32.20
2019-04-01T07:01:44.542Z,34.17
2019-04-01T07:04:13.281Z,32.47
2019-04-01T07:06:42.474Z,38.33
2019-04-01T07:09:11.164Z,31.87
2019-04-01T07:11:41.516Z,28.43
2019-04-01T07:14:10.256Z,30.73
2019-04-01T07:16:40.167Z,33.63
2019-04-01T07:19:08.923Z,26.73
2019-04-01T07:21:37.692Z,33.80
2019-04-01T07:24:06.575Z,23.10
2019-04-01T07:26:35.352Z,23.13
2019-04-01T07:29:04.024Z,27.13
2019-04-01T07:31:32.666Z,28.93
2019-04-01T07:34:01.554Z,24.53
2019-04-01T07:36:33.489Z,26.57
2019-04-01T07:39:02.221Z,25.87
2019-04-01T07:41:30.983Z,23.43
2019-04-01T07:43:59.625Z,128.33
2019-04-01T07:46:30.966Z,29.45
2019-04-01T07:48:59.753Z,22.37
2019-04-01T07:51:28.445Z,22.57
2019-04-01T07:53:57.188Z,30.07
2019-04-01T07:56:25.887Z,29.93
2019-04-01T07:58:55.052Z,24.03
2019-04-01T08:01:23.895Z,24.23
2019-04-01T08:03:52.793Z,23.33
2019-04-01T08:06:21.533Z,20.53
2019-04-01T08:08:50.427Z,22.57
2019-04-01T08:11:19.278Z,22.90
2019-04-01T08:13:47.990Z,19.90
2019-04-01T08:16:16.770Z,19.82
2019-04-01T08:18:45.423Z,20.88
2019-04-01T08:21:14.257Z,19.62
2019-04-01T08:23:43.114Z,35.60
2019-04-01T08:26:11.911Z,19.80
2019-04-01T08:28:41.905Z,22.77
2019-04-01T08:31:13.316Z,22.60
2019-04-01T08:33:41.639Z,21.60
2019-04-01T08:36:12.022Z,16.48
2019-04-01T08:38:43.273Z,23.95
2019-04-01T08:41:15.073Z,16.97
2019-04-01T08:43:43.851Z,18.67
2019-04-01T08:46:12.610Z,14.13
2019-04-01T08:48:41.304Z,15.78
2019-04-01T08:51:10.095Z,21.17
2019-04-01T08:53:39.517Z,16.48
2019-04-01T08:56:08.193Z,12.70
2019-04-01T08:58:36.903Z,18.80
2019-04-01T09:01:05.791Z,28.07
2019-04-01T09:03:34.506Z,10.23
2019-04-01T09:08:46.730Z,14.07
2019-04-01T09:11:15.665Z,11.88
2019-04-01T09:13:47.110Z,10.50
2019-04-01T09:16:19.284Z,8.68
2019-04-01T09:18:47.627Z,11.43
2019-04-01T09:21:16.230Z,9.25
2019-04-01T09:23:44.860Z,7.85
2019-04-01T09:26:13.585Z,9.93
2019-04-01T09:28:42.142Z,9.65
2019-04-01T09:31:10.779Z,11.05
2019-04-01T09:33:39.464Z,7.62
2019-04-01T09:36:08.024Z,6.67
2019-04-01T09:38:44.498Z,9.35
2019-04-01T09:41:19.369Z,5.17
2019-04-01T09:43:48.759Z,8.65
2019-04-01T09:46:20.698Z,7.03
2019-04-01T09:48:49.344Z,8.30
2019-04-01T09:51:19.551Z,11.30
2019-04-01T09:53:48.373Z,7.83
2019-04-01T09:56:17.123Z,8.25
2019-04-01T09:58:45.789Z,7.72
2019-04-01T10:01:14.414Z,6.12
2019-04-01T10:03:44.537Z,9.48
2019-04-01T10:06:13.223Z,7.35
2019-04-01T10:08:42.963Z,6.10
2019-04-01T10:11:12.851Z,6.67
2019-04-01T10:13:42.120Z,5.50
2019-04-01T10:16:10.772Z,5.85
2019-04-01T10:18:40.689Z,7.85
2019-04-01T10:21:09.682Z,8.13
2019-04-01T10:23:40.921Z,7.83
2019-04-01T10:26:14.115Z,6.45
2019-04-01T10:28:50.801Z,8.28
2019-04-01T10:31:20.032Z,8.95
2019-04-01T10:33:50.823Z,6.37
2019-04-01T10:36:21.490Z,10.08
2019-04-01T10:38:50.420Z,9.58
2019-04-01T10:41:19.373Z,7.03
2019-04-01T10:43:48.257Z,6.67
2019-04-01T10:46:17.178Z,5.28
2019-04-01T10:48:45.997Z,7.78
2019-04-01T10:51:15.013Z,7.33
2019-04-01T10:53:43.978Z,9.00
2019-04-01T10:56:15.224Z,26.05
2019-04-01T10:58:44.340Z,7.53
2019-04-01T11:01:13.327Z,5.17
2019-04-01T11:03:42.205Z,5.08
2019-04-01T11:06:11.155Z,15.38
2019-04-01T11:08:40.268Z,4.20
2019-04-01T11:11:09.104Z,5.50
2019-04-01T11:13:38.080Z,18.25
2019-04-01T11:16:06.942Z,8.53
2019-04-01T11:18:38.596Z,64.15
2019-04-01T11:21:07.447Z,11.30
2019-04-01T11:23:38.491Z,10.75
2019-04-01T11:26:14.746Z,5.33
2019-04-01T11:28:43.678Z,8.25
2019-04-01T11:31:12.640Z,27.45
2019-04-01T11:33:43.117Z,6.53
2019-04-01T11:36:12.121Z,5.20
2019-04-01T11:38:41.010Z,6.03
2019-04-01T11:41:10.048Z,6.00
2019-04-01T11:43:38.932Z,4.85
2019-04-01T11:46:14.910Z,6.05
2019-04-01T11:48:43.256Z,6.62
2019-04-01T11:51:13.415Z,14.87
2019-04-01T11:53:42.079Z,8.00
2019-04-01T11:56:10.950Z,12.10
2019-04-01T11:58:40.342Z,6.03
2019-04-01T12:01:09.019Z,54.98
2019-04-01T12:03:37.624Z,5.75
2019-04-01T12:06:06.253Z,6.87
2019-04-01T12:08:34.808Z,6.30
2019-04-01T12:11:03.492Z,12.03
2019-04-01T12:13:32.084Z,5.85
2019-04-01T12:16:00.713Z,8.10
2019-04-01T12:18:31.134Z,5.42
2019-04-01T12:20:59.772Z,19.40
2019-04-01T12:23:32.739Z,5.50
2019-04-01T12:26:14.933Z,10.08
2019-04-01T12:28:36.826Z,12.40
2019-04-01T12:31:05.559Z,6.72
2019-04-01T12:33:34.320Z,8.50
2019-04-01T12:36:02.938Z,10.80
2019-04-01T12:38:31.618Z,55.88
2019-04-01T12:41:00.293Z,7.83
2019-04-01T12:43:28.998Z,7.70
2019-04-01T12:45:57.641Z,11.68
2019-04-01T12:48:26.236Z,8.38
2019-04-01T12:50:54.858Z,7.15
2019-04-01T12:53:24.913Z,5.62
2019-04-01T12:55:53.465Z,7.05
2019-04-01T12:58:25.202Z,9.65
2019-04-01T13:00:52.517Z,7.30
2019-04-01T13:03:21.128Z,8.65
2019-04-01T13:06:26.011Z,9.30
2019-04-01T13:09:13.966Z,12.47
2019-04-01T13:12:18.621Z,7.22
2019-04-01T13:15:06.762Z,10.45
2019-04-01T13:18:11.481Z,6.20
2019-04-01T13:20:59.044Z,6.75
2019-04-01T13:24:04.918Z,7.58
2019-04-01T13:26:52.925Z,8.88
2019-04-01T13:29:58.019Z,25.20
2019-04-01T13:32:45.630Z,7.37
2019-04-01T13:35:50.049Z,7.90
2019-04-01T13:38:18.779Z,6.85
2019-04-01T13:40:47.468Z,6.03
2019-04-01T13:43:18.849Z,12.00
2019-04-01T13:45:47.519Z,9.98
2019-04-01T13:48:16.160Z,6.65
2019-04-01T13:50:44.731Z,12.78
2019-04-01T13:53:13.405Z,13.25
2019-04-01T13:55:42.004Z,10.75
2019-04-01T13:58:10.957Z,7.30
2019-04-01T14:00:39.671Z,5.10
2019-04-01T14:03:11.074Z,7.33
2019-04-01T14:05:38.555Z,6.17
2019-04-01T14:08:07.622Z,7.17
2019-04-01T14:10:36.258Z,12.07
2019-04-01T14:13:04.892Z,5.62
2019-04-01T14:15:33.562Z,14.20
2019-04-01T14:18:02.086Z,10.98
2019-04-01T14:20:30.702Z,7.33
2019-04-01T14:22:59.348Z,6.20
2019-04-01T14:25:28.013Z,8.95
2019-04-01T14:27:56.635Z,7.17
2019-04-01T14:30:25.297Z,8.60
2019-04-01T14:32:53.842Z,7.80
2019-04-01T14:35:23.781Z,9.63
2019-04-01T14:37:52.717Z,9.15
2019-04-01T14:40:21.381Z,7.05
2019-04-01T14:42:50.010Z,6.60
2019-04-01T14:45:18.685Z,6.28
2019-04-01T14:47:57.186Z,6.85
2019-04-01T14:50:17.684Z,9.75
2019-04-01T14:52:46.311Z,8.70
2019-04-01T14:55:14.933Z,8.05
2019-04-01T14:57:43.489Z,14.15
2019-04-01T15:00:13.638Z,15.40
2019-04-01T15:02:42.428Z,4.67
2019-04-01T15:05:11.273Z,10.45
2019-04-01T15:07:39.921Z,8.10
2019-04-01T15:10:08.768Z,10.70
2019-04-01T15:12:37.444Z,11.15
2019-04-01T15:15:08.866Z,6.42
2019-04-01T15:17:37.557Z,12.50
2019-04-01T15:20:07.688Z,8.08
2019-04-01T15:22:36.367Z,8.20
2019-04-01T15:25:07.058Z,6.78
2019-04-01T15:27:35.604Z,10.93
2019-04-01T15:30:05.786Z,8.65
2019-04-01T15:32:34.336Z,6.67
2019-04-01T15:35:03.076Z,10.28
2019-04-01T15:37:32.253Z,5.65
2019-04-01T15:40:00.943Z,7.33
2019-04-01T15:42:29.501Z,12.65
2019-04-01T15:44:58.031Z,6.62
2019-04-01T15:47:29.081Z,8.30
2019-04-01T15:49:57.725Z,10.32
2019-04-01T15:52:26.296Z,10.38
2019-04-01T15:54:57.740Z,9.83
2019-04-01T15:57:25.176Z,6.57
2019-04-01T15:59:53.775Z,7.73
2019-04-01T16:02:22.378Z,10.90
2019-04-01T16:04:51.009Z,11.47
2019-04-01T16:07:22.403Z,8.13
2019-04-01T16:09:50.028Z,6.50
2019-04-01T16:12:18.617Z,20.72
2019-04-01T16:14:47.287Z,10.27
2019-04-01T16:17:15.914Z,182.03
2019-04-01T16:19:44.582Z,25.60
2019-04-01T16:22:13.206Z,21.07
2019-04-01T16:24:41.849Z,14.03
2019-04-01T16:27:10.521Z,11.33
2019-04-01T16:29:39.152Z,10.17
2019-04-01T16:32:07.771Z,8.73
2019-04-01T16:34:36.370Z,18.63
2019-04-01T16:37:04.997Z,9.90
2019-04-01T16:39:33.627Z,9.90
2019-04-01T16:42:02.186Z,11.03
2019-04-01T16:44:30.813Z,11.67
2019-04-01T16:46:59.399Z,11.50
2019-04-01T16:49:28.040Z,12.63
2019-04-01T16:52:00.364Z,18.33
2019-04-01T16:54:29.386Z,11.83
2019-04-01T16:56:57.958Z,20.70
2019-04-01T16:59:28.122Z,24.33
2019-04-01T17:01:57.879Z,27.70
2019-04-01T17:04:26.632Z,31.10
2019-04-01T17:06:55.194Z,23.07
2019-04-01T17:09:23.831Z,17.23
2019-04-01T17:11:54.288Z,15.00
2019-04-01T17:14:24.201Z,18.03
2019-04-01T17:16:53.130Z,28.03
2019-04-01T17:19:21.776Z,32.33
2019-04-01T17:21:50.407Z,48.73
2019-04-01T17:24:19.017Z,42.43
2019-04-01T17:27:05.567Z,42.50
2019-04-01T17:29:34.209Z,27.50
2019-04-01T17:32:02.878Z,21.73
2019-04-01T17:34:34.535Z,37.60
2019-04-01T17:37:03.224Z,33.50
2019-04-01T17:39:31.852Z,30.67
2019-04-01T17:42:00.452Z,28.40
2019-04-01T17:44:29.093Z,18.60
2019-04-01T17:46:57.770Z,21.57
2019-04-01T17:49:30.242Z,20.50
2019-04-01T17:52:04.301Z,41.00
2019-04-01T17:54:32.765Z,31.60
2019-04-01T17:57:01.438Z,25.17
2019-04-01T17:59:30.066Z,29.50
2019-04-01T18:01:58.756Z,25.67
2019-04-01T18:04:27.320Z,24.43
2019-04-01T18:06:58.287Z,21.97
2019-04-01T18:09:26.284Z,20.33
2019-04-01T18:11:55.211Z,26.20
2019-04-01T18:14:24.190Z,28.17
2019-04-01T18:16:52.829Z,27.73
2019-04-01T18:19:21.461Z,40.03
2019-04-01T18:21:50.064Z,71.47
2019-04-01T18:24:18.740Z,56.50
2019-04-01T18:26:47.371Z,37.50
2019-04-01T18:29:15.942Z,28.70
2019-04-01T18:31:44.581Z,26.57
2019-04-01T18:34:13.218Z,28.77
2019-04-01T18:36:41.819Z,21.57
2019-04-01T18:39:11.063Z,21.37
2019-04-01T18:41:39.740Z,30.63
2019-04-01T18:44:08.364Z,17.50
2019-04-01T18:46:37.042Z,37.23
2019-04-01T18:49:05.676Z,48.00
2019-04-01T18:51:36.512Z,41.53
2019-04-01T18:54:05.248Z,46.67
2019-04-01T18:56:34.079Z,55.97
2019-04-01T18:59:02.683Z,68.30
2019-04-01T19:01:31.320Z,73.57
2019-04-01T19:03:59.811Z,65.77
2019-04-01T19:06:31.423Z,67.77
2019-04-01T19:09:09.233Z,68.63
2019-04-01T19:11:30.400Z,72.77
2019-04-01T19:14:02.150Z,84.47
2019-04-01T19:16:30.629Z,96.13
2019-04-01T19:18:59.293Z,84.07
2019-04-01T19:21:27.860Z,79.50
2019-04-01T19:23:56.413Z,76.00
2019-04-01T19:26:24.982Z,67.67
2019-04-01T19:28:53.547Z,74.03
2019-04-01T19:31:22.209Z,71.20
2019-04-01T19:33:50.895Z,65.43
2019-04-01T19:36:19.510Z,60.17
2019-04-01T19:38:48.083Z,54.67
2019-04-01T19:41:16.682Z,49.97
2019-04-01T19:43:45.653Z,43.33
2019-04-01T19:46:14.574Z,38.17
2019-04-01T19:48:43.200Z,36.30
2019-04-01T19:51:11.874Z,30.00
2019-04-01T19:53:40.511Z,30.13
2019-04-01T19:56:09.134Z,32.80
2019-04-01T19:58:37.806Z,29.50
2019-04-01T20:01:06.513Z,32.70
2019-04-01T20:03:35.151Z,37.97
2019-04-01T20:06:07.211Z,40.10
2019-04-01T20:08:34.178Z,37.10
2019-04-01T20:11:02.855Z,33.57
2019-04-01T20:13:31.425Z,30.23
2019-04-01T20:15:59.980Z,30.50
2019-04-01T20:18:28.560Z,24.93
2019-04-01T20:20:57.110Z,33.93
2019-04-01T20:23:25.784Z,31.37
2019-04-01T20:25:54.415Z,27.03
2019-04-01T20:28:23.105Z,25.43
2019-04-01T20:30:56.460Z,32.13
2019-04-01T20:33:27.226Z,27.97
2019-04-01T20:35:55.852Z,27.73
2019-04-01T20:38:24.527Z,27.07
2019-04-01T20:40:53.282Z,31.57
2019-04-01T20:43:21.844Z,33.73
2019-04-01T20:45:50.457Z,36.67
2019-04-01T20:48:19.086Z,40.33
2019-04-01T20:50:47.719Z,40.37
2019-04-01T20:53:16.402Z,42.50
2019-04-01T20:55:48.436Z,39.40
2019-04-01T20:58:17.946Z,49.00
2019-04-01T21:00:46.578Z,38.37
2019-04-01T21:03:15.067Z,41.70
2019-04-01T21:05:43.628Z,43.93
2019-04-01T21:08:12.238Z,43.90
2019-04-01T21:10:43.927Z,50.00
2019-04-01T21:13:12.612Z,44.83
2019-04-01T21:15:41.242Z,41.37
2019-04-01T21:18:09.810Z,50.87
2019-04-01T21:20:38.373Z,47.20
2019-04-01T21:23:08.687Z,52.73
2019-04-01T21:25:37.245Z,52.73
2019-04-01T21:28:05.890Z,49.03
2019-04-01T21:30:34.517Z,51.13
2019-04-01T21:33:03.080Z,48.23
2019-04-01T21:35:31.638Z,53.43
2019-04-01T21:38:00.275Z,50.97
2019-04-01T21:40:28.763Z,53.10
2019-04-01T21:42:57.596Z,62.47
2019-04-01T21:45:26.269Z,54.40
2019-04-01T21:47:54.790Z,50.57
2019-04-01T21:50:23.412Z,33.90
2019-04-01T21:52:52.085Z,33.20
2019-04-01T21:55:20.729Z,30.97
2019-04-01T21:57:51.137Z,29.67
2019-04-01T22:00:27.654Z,42.57
2019-04-01T22:02:56.245Z,28.87
2019-04-01T22:05:24.910Z,31.50
2019-04-01T22:07:53.452Z,42.77
2019-04-01T22:10:22.111Z,43.80
2019-04-01T22:12:52.569Z,45.10
2019-04-01T22:15:23.677Z,40.97
2019-04-01T22:17:52.235Z,44.63
2019-04-01T22:20:20.866Z,51.03
2019-04-01T22:22:49.515Z,42.57
2019-04-01T22:25:18.142Z,45.80
2019-04-01T22:27:46.745Z,42.77
2019-04-01T22:30:17.307Z,42.37
2019-04-01T22:32:46.367Z,44.40
2019-04-01T22:35:15.031Z,42.77
2019-04-01T22:37:43.636Z,48.80
2019-04-01T22:40:12.672Z,42.77
2019-04-01T22:42:41.315Z,41.97
2019-04-01T22:45:10.019Z,46.67
2019-04-01T22:47:38.646Z,48.90
2019-04-01T22:50:07.829Z,45.20
2019-04-01T22:52:36.314Z,42.50
2019-04-01T22:55:05.643Z,43.50
2019-04-01T22:57:34.248Z,42.03
2019-04-01T23:00:02.960Z,39.27
2019-04-01T23:02:31.444Z,38.23
2019-04-01T23:04:59.977Z,41.80
2019-04-01T23:07:28.610Z,45.17
2019-04-01T23:09:58.099Z,37.37
2019-04-01T23:12:26.968Z,46.83
2019-04-01T23:14:55.610Z,45.50
2019-04-01T23:17:24.239Z,52.50
2019-04-01T23:19:52.796Z,45.47
2019-04-01T23:22:21.438Z,42.47
2019-04-01T23:24:50.009Z,54.90
2019-04-01T23:27:18.631Z,44.83
2019-04-01T23:29:47.158Z,47.70
2019-04-01T23:32:16.320Z,49.13
2019-04-01T23:34:45.419Z,50.27
2019-04-01T23:37:14.048Z,47.03
2019-04-01T23:39:42.676Z,52.73
2019-04-01T23:42:11.283Z,57.80
2019-04-01T23:44:39.835Z,56.13
2019-04-01T23:47:08.441Z,52.10
2019-04-01T23:49:37.143Z,54.80
2019-04-01T23:52:05.928Z,52.73
2019-04-01T23:54:34.508Z,58.10
2019-04-01T23:57:03.137Z,56.93
2019-04-01T23:59:31.738Z,54.17
